Time;durP1;ratioP1;P1;durP2;ratioP2;P2;SDS_P1;SDS_P2;PMS_P1;PMS_P2;Temp;Humidity;BMP_temperature;BMP_pressure;BME280_temperature;BME280_humidity;BME280_pressure;Samples;Min_cycle;Max_cycle;Signal;HPM_P1;HPM_P2
2022/07/16 00:03:51;;;;;;;3.80;3.50;;;;;;;21.99;58.44;94946.63;5073257;28;20768;-83
2022/07/16 00:06:18;;;;;;;5.20;3.83;;;;;;;21.98;58.84;94944.16;5073422;28;20449;-82
2022/07/16 00:08:45;;;;;;;5.10;4.60;;;;;;;21.94;58.75;94947.19;5073387;28;20452;-85
2022/07/16 00:11:12;;;;;;;3.67;3.37;;;;;;;21.90;59.02;94948.63;5073331;28;20531;-84
2022/07/16 00:13:39;;;;;;;3.50;3.30;;;;;;;21.87;58.77;94942.84;5073175;28;20488;-83
2022/07/16 00:16:07;;;;;;;3.50;3.30;;;;;;;21.82;58.92;94946.13;5072801;28;20935;-82
2022/07/16 00:21:20;;;;;;;3.83;3.63;;;;;;;21.70;59.53;94947.72;5073114;28;20779;-83
2022/07/16 00:23:46;;;;;;;4.63;4.20;;;;;;;21.61;59.68;94933.66;5073143;28;20510;-84
2022/07/16 00:26:13;;;;;;;4.20;3.90;;;;;;;21.55;60.08;94933.63;5072566;28;20452;-83
2022/07/16 00:28:40;;;;;;;4.00;3.70;;;;;;;21.48;60.66;94930.94;5072949;28;20436;-82
2022/07/16 00:31:07;;;;;;;3.90;3.50;;;;;;;21.49;60.50;94935.25;5072793;28;20965;-82
2022/07/16 00:33:34;;;;;;;4.33;3.70;;;;;;;21.48;60.83;94935.44;5072879;28;20448;-83
2022/07/16 00:36:01;;;;;;;3.83;3.50;;;;;;;21.45;60.83;94925.16;5072944;28;20447;-84
2022/07/16 00:38:29;;;;;;;4.10;3.73;;;;;;;21.36;60.78;94935.16;5072939;28;20938;-83
2022/07/16 00:40:55;;;;;;;4.13;3.73;;;;;;;21.36;60.90;94934.31;5054036;28;20449;-81
2022/07/16 00:43:22;;;;;;;4.40;3.83;;;;;;;21.37;60.58;94931.47;5072876;28;20824;-83
2022/07/16 00:45:49;;;;;;;4.90;4.17;;;;;;;21.37;61.33;94928.78;5072837;28;20448;-83
2022/07/16 00:48:16;;;;;;;6.00;3.63;;;;;;;21.33;61.53;94932.88;5073279;28;20441;-83
2022/07/16 00:50:43;;;;;;;4.17;3.80;;;;;;;21.31;61.50;94932.25;5072757;28;20440;-83
2022/07/16 00:53:11;;;;;;;3.90;3.60;;;;;;;21.28;61.76;94930.78;5072731;28;20466;-84
2022/07/16 00:55:40;;;;;;;3.60;3.40;;;;;;;21.25;61.62;94933.03;5072556;28;20451;-83
2022/07/16 00:58:07;;;;;;;4.10;3.70;;;;;;;21.21;62.08;94937.91;5072850;28;20468;-81
2022/07/16 01:00:34;;;;;;;7.33;4.37;;;;;;;21.19;62.13;94928.44;5072606;28;20452;-81
2022/07/16 01:03:04;;;;;;;4.13;3.83;;;;;;;21.21;62.30;94937.91;5037354;28;20488;-83
2022/07/16 01:05:32;;;;;;;3.90;3.60;;;;;;;21.29;62.20;94939.63;5072685;28;20449;-83
2022/07/16 01:07:58;;;;;;;4.50;4.20;;;;;;;21.24;61.99;94936.72;5072470;28;20457;-82
2022/07/16 01:10:26;;;;;;;4.07;3.77;;;;;;;21.26;62.50;94945.34;5072696;28;20506;-83
2022/07/16 01:12:58;;;;;;;3.50;3.30;;;;;;;21.28;62.09;94946.81;5072475;28;20983;-83
2022/07/16 01:15:25;;;;;;;4.73;3.63;;;;;;;21.26;62.60;94937.34;5072326;28;20502;-84
2022/07/16 01:17:52;;;;;;;3.67;3.47;;;;;;;21.26;62.34;94940.84;5053776;28;20441;-82
2022/07/16 01:20:18;;;;;;;4.23;3.60;;;;;;;21.27;62.48;94947.84;5072741;28;20452;-83
2022/07/16 01:22:47;;;;;;;4.90;4.60;;;;;;;21.31;62.46;94943.75;5072530;28;20488;-84
2022/07/16 01:25:15;;;;;;;4.80;4.30;;;;;;;21.33;62.66;94939.03;5072785;28;20480;-83
2022/07/16 01:27:43;;;;;;;4.57;4.17;;;;;;;21.34;62.75;94948.69;5072412;28;20456;-84
2022/07/16 01:30:10;;;;;;;4.80;4.50;;;;;;;21.34;62.31;94947.88;5037208;28;20444;-84
2022/07/16 01:32:38;;;;;;;4.20;3.90;;;;;;;21.34;62.34;94948.69;5072306;28;20447;-83
2022/07/16 01:35:07;;;;;;;4.23;3.93;;;;;;;21.36;62.41;94942.34;5072526;28;20441;-84
2022/07/16 01:37:33;;;;;;;4.50;4.10;;;;;;;21.34;62.57;94948.69;5073781;28;20464;-83
2022/07/16 01:40:00;;;;;;;4.23;3.93;;;;;;;21.32;62.25;94941.91;5076194;28;20447;-82
2022/07/16 01:42:28;;;;;;;4.13;3.73;;;;;;;21.23;61.97;94951.91;5075668;28;20897;-83
2022/07/16 01:44:55;;;;;;;4.67;4.37;;;;;;;21.23;62.48;94951.91;5075941;28;20453;-83
2022/07/16 01:47:22;;;;;;;4.20;3.90;;;;;;;21.17;62.16;94951.84;5040759;28;20456;-83
2022/07/16 01:49:49;;;;;;;4.43;3.70;;;;;;;21.15;61.92;94943.19;5075754;28;20451;-82
2022/07/16 01:52:19;;;;;;;4.33;3.93;;;;;;;20.98;61.80;94943.47;5075876;28;20452;-82
2022/07/16 01:54:48;;;;;;;4.23;3.97;;;;;;;20.97;61.95;94944.47;5075507;28;20439;-85
2022/07/16 01:57:15;;;;;;;6.80;4.20;;;;;;;20.96;61.94;94950.84;5075867;28;20445;-83
2022/07/16 01:59:44;;;;;;;4.20;3.90;;;;;;;20.94;62.93;94946.72;5075671;28;20452;-83
2022/07/16 02:02:11;;;;;;;4.50;4.07;;;;;;;20.89;63.15;94943.81;5040117;28;20445;-83
2022/07/16 02:04:39;;;;;;;5.07;4.57;;;;;;;20.86;63.10;94946.84;5075939;28;20860;-84
2022/07/16 02:07:06;;;;;;;4.33;3.87;;;;;;;20.80;63.52;94950.25;5075415;28;20445;-82
2022/07/16 02:09:34;;;;;;;7.20;4.20;;;;;;;20.78;63.13;94949.63;5075425;28;20449;-84
2022/07/16 02:12:01;;;;;;;4.10;3.80;;;;;;;20.78;63.62;94958.47;5075582;28;20460;-84
2022/07/16 02:14:28;;;;;;;5.70;5.00;;;;;;;20.82;63.72;94965.09;5056716;28;20469;-82
2022/07/16 02:16:56;;;;;;;3.87;3.63;;;;;;;20.80;63.89;94953.75;5075636;28;20459;-83
2022/07/16 02:19:23;;;;;;;6.53;4.23;;;;;;;20.82;63.95;94964.25;5075496;28;20450;-84
2022/07/16 02:21:49;;;;;;;4.07;3.77;;;;;;;20.77;64.19;94951.47;5075180;28;20461;-85
2022/07/16 02:24:16;;;;;;;7.70;4.20;;;;;;;20.77;63.78;94964.81;5075298;28;20497;-83
2022/07/16 02:26:43;;;;;;;4.27;3.97;;;;;;;20.78;64.12;94963.78;5074903;28;20461;-83
2022/07/16 02:29:11;;;;;;;4.70;4.40;;;;;;;20.82;64.24;94975.75;5075543;28;20444;-83
2022/07/16 02:31:38;;;;;;;6.10;4.20;;;;;;;20.87;64.27;94973.34;5074808;28;20923;-84
2022/07/16 02:34:06;;;;;;;4.50;4.10;;;;;;;20.89;64.40;94983.81;5075103;28;20444;-81
2022/07/16 02:36:33;;;;;;;5.17;4.33;;;;;;;20.87;64.13;94991.19;5074962;28;20456;-85
2022/07/16 02:38:59;;;;;;;4.87;4.43;;;;;;;20.79;63.87;94984.13;5074645;28;20452;-83
2022/07/16 02:41:26;;;;;;;7.33;4.40;;;;;;;20.71;63.91;94981.56;5074719;28;20441;-82
2022/07/16 02:43:53;;;;;;;4.43;3.87;;;;;;;20.66;64.40;94984.81;5074409;28;20489;-84
2022/07/16 02:46:20;;;;;;;5.00;4.60;;;;;;;20.57;64.70;94980.63;5074963;28;20559;-83
2022/07/16 02:48:47;;;;;;;4.80;4.30;;;;;;;20.52;64.93;94977.69;5055565;28;20437;-82
2022/07/16 02:51:15;;;;;;;6.13;4.43;;;;;;;20.49;65.20;94982.56;5074645;28;20449;-83
2022/07/16 02:53:42;;;;;;;4.50;4.10;;;;;;;20.42;65.30;94975.34;5055685;28;20486;-83
2022/07/16 02:56:09;;;;;;;4.80;4.13;;;;;;;20.35;65.06;94971.75;5074690;28;20485;-83
2022/07/16 02:58:36;;;;;;;5.13;4.53;;;;;;;20.26;65.53;94972.88;5074512;28;20503;-84
2022/07/16 03:01:02;;;;;;;3.90;3.60;;;;;;;20.18;65.77;94970.31;5074873;28;20448;-84
2022/07/16 03:03:29;;;;;;;4.20;3.90;;;;;;;20.08;65.61;94970.59;5074465;28;20488;-82
2022/07/16 03:05:56;;;;;;;6.50;4.73;;;;;;;20.01;66.15;94975.03;5074112;28;20456;-83
2022/07/16 03:08:24;;;;;;;5.03;4.60;;;;;;;20.00;65.97;94975.22;5074311;28;20449;-83
2022/07/16 03:10:51;;;;;;;5.60;3.90;;;;;;;20.02;66.07;94983.84;5074076;28;20453;-79
2022/07/16 03:13:18;;;;;;;4.27;3.97;;;;;;;20.00;66.66;94986.69;5038863;28;20567;-83
2022/07/16 03:15:45;;;;;;;5.07;4.67;;;;;;;20.00;66.99;94985.88;5074125;28;20464;-85
2022/07/16 03:18:12;;;;;;;4.90;4.50;;;;;;;19.99;67.54;94979.72;5074095;28;20445;-83
2022/07/16 03:20:38;;;;;;;5.20;4.80;;;;;;;19.99;67.49;94978.91;5074315;28;20511;-86
2022/07/16 03:23:05;;;;;;;4.53;4.23;;;;;;;19.98;67.79;94987.91;5074178;28;20477;-82
2022/07/16 03:25:34;;;;;;;9.90;4.27;;;;;;;20.06;67.34;94993.94;5038657;28;20449;-83
2022/07/16 03:28:00;;;;;;;4.67;4.27;;;;;;;20.22;67.18;94992.91;5073868;28;20920;-84
2022/07/16 03:30:27;;;;;;;4.60;4.13;;;;;;;20.38;67.01;94999.84;5073955;28;20809;-82
2022/07/16 03:32:54;;;;;;;4.67;4.20;;;;;;;20.62;66.79;95006.72;5073663;28;20536;-84
2022/07/16 03:35:21;;;;;;;4.70;4.27;;;;;;;20.86;65.69;95001.03;5073593;28;21029;-83
2022/07/16 03:40:32;;;;;;;6.30;5.40;;;;;;;21.30;65.41;95014.16;5053896;28;20425;-83
2022/07/16 03:43:00;;;;;;;5.20;4.70;;;;;;;21.74;64.03;95002.38;5053658;28;20492;-83
2022/07/16 03:45:27;;;;;;;4.67;4.27;;;;;;;22.11;62.46;95013.72;5054110;28;20445;-84
2022/07/16 03:47:54;;;;;;;5.20;4.80;;;;;;;22.49;60.58;95020.25;5053481;28;20450;-80
2022/07/16 03:50:21;;;;;;;6.67;4.20;;;;;;;22.84;59.17;95010.34;5053582;28;20465;-83
2022/07/16 03:52:48;;;;;;;4.90;4.37;;;;;;;23.21;57.97;95016.16;5053255;28;20503;-80
2022/07/16 03:55:15;;;;;;;4.17;3.87;;;;;;;23.64;56.29;95011.22;5053421;28;20532;-83
2022/07/16 03:57:43;;;;;;;4.80;4.00;;;;;;;24.06;54.74;95006.41;5053457;28;20445;-81
2022/07/16 04:00:13;;;;;;;6.23;4.13;;;;;;;24.40;53.39;95006.13;5053016;28;20453;-82
2022/07/16 04:02:40;;;;;;;4.33;3.93;;;;;;;24.68;52.24;95008.47;5053478;28;20494;-83
2022/07/16 04:05:08;;;;;;;4.43;4.00;;;;;;;24.95;51.17;95008.34;5053317;28;20453;-84
2022/07/16 04:07:35;;;;;;;3.80;3.50;;;;;;;25.11;50.57;95013.19;5053124;28;20924;-81
2022/07/16 04:10:03;;;;;;;4.53;4.20;;;;;;;25.36;50.13;95015.09;5053165;28;20453;-79
2022/07/16 04:12:30;;;;;;;5.20;3.73;;;;;;;25.65;49.33;95017.13;5052603;28;20452;-79
2022/07/16 04:14:56;;;;;;;4.37;3.70;;;;;;;25.91;48.58;95016.91;5052615;28;20461;-86
2022/07/16 04:17:24;;;;;;;8.13;4.43;;;;;;;26.00;49.42;95016.63;5050325;28;20453;-80
2022/07/16 04:19:51;;;;;;;4.73;4.10;;;;;;;25.96;49.90;95018.94;5052541;28;20509;-81
2022/07/16 04:22:18;;;;;;;4.93;4.20;;;;;;;25.83;50.06;95022.59;5052833;28;20852;-79
2022/07/16 04:24:45;;;;;;;7.03;4.40;;;;;;;25.88;50.05;95028.13;5052234;28;20485;-79
2022/07/16 04:27:11;;;;;;;5.00;4.50;;;;;;;25.42;51.28;95024.97;5053108;28;20450;-80
2022/07/16 04:29:38;;;;;;;6.10;4.73;;;;;;;25.31;52.17;95032.69;5052651;28;20445;-79
2022/07/16 04:32:06;;;;;;;4.73;4.10;;;;;;;25.31;51.36;95030.00;5054195;28;20456;-79
2022/07/16 04:34:34;;;;;;;5.33;4.47;;;;;;;25.33;50.31;95038.66;5053826;28;20476;-79
2022/07/16 04:37:01;;;;;;;7.80;4.30;;;;;;;25.31;51.49;95038.06;5052568;28;20787;-80
2022/07/16 04:39:28;;;;;;;5.63;5.00;;;;;;;25.58;50.09;95033.31;5053105;28;20446;-80
2022/07/16 04:41:55;;;;;;;5.63;4.43;;;;;;;25.62;50.14;95039.06;5052671;28;20948;-80
2022/07/16 04:44:21;;;;;;;6.53;4.83;;;;;;;25.41;50.12;95034.88;5052574;28;20485;-78
2022/07/16 04:46:48;;;;;;;10.53;4.80;;;;;;;24.96;51.39;95031.47;5052422;28;20450;-81
2022/07/16 04:49:15;;;;;;;5.10;4.70;;;;;;;25.14;51.71;95039.63;5052866;28;20797;-82
2022/07/16 04:51:43;;;;;;;5.83;5.23;;;;;;;25.40;51.49;95043.16;5052605;28;20919;-80
2022/07/16 04:54:10;;;;;;;6.80;5.03;;;;;;;25.64;51.17;95047.75;5052768;28;20491;-79
2022/07/16 04:56:37;;;;;;;7.33;5.00;;;;;;;26.01;50.59;95050.53;5052851;28;20446;-78
2022/07/16 04:59:03;;;;;;;5.20;4.80;;;;;;;26.31;49.27;95042.56;5052561;28;20460;-80
2022/07/16 05:01:30;;;;;;;6.53;4.67;;;;;;;26.61;48.75;95045.41;5052349;28;20445;-79
2022/07/16 05:03:57;;;;;;;8.17;5.50;;;;;;;26.94;47.68;95044.97;5052283;28;20490;-79
2022/07/16 05:06:24;;;;;;;7.87;4.67;;;;;;;27.27;47.47;95041.84;5052383;28;20442;-79
2022/07/16 05:08:52;;;;;;;6.07;4.90;;;;;;;27.53;46.38;95040.63;5052207;28;20461;-80
2022/07/16 05:11:19;;;;;;;11.00;6.30;;;;;;;27.81;45.41;95034.59;5050418;28;20458;-79
2022/07/16 05:13:46;;;;;;;9.33;6.30;;;;;;;27.86;43.68;95042.81;5037140;28;20478;-79
2022/07/16 05:16:13;;;;;;;8.73;5.60;;;;;;;27.70;44.94;95044.31;5054582;28;20449;-78
2022/07/16 05:18:39;;;;;;;6.73;5.07;;;;;;;27.84;44.08;95042.22;5056669;28;20464;-80
2022/07/16 05:21:07;;;;;;;8.17;4.70;;;;;;;27.99;44.34;95031.78;5054148;28;20460;-79
2022/07/16 05:23:35;;;;;;;7.53;6.00;;;;;;;28.17;44.48;95033.53;5055964;28;20489;-84
2022/07/16 05:26:04;;;;;;;12.53;5.63;;;;;;;28.43;45.45;95037.66;5056276;28;20835;-81
2022/07/16 05:28:31;;;;;;;5.80;5.20;;;;;;;28.58;43.94;95035.25;5056366;28;20944;-78
2022/07/16 05:30:57;;;;;;;6.23;5.00;;;;;;;28.70;43.09;95033.38;5055945;28;20445;-78
2022/07/16 05:33:25;;;;;;;5.20;4.70;;;;;;;28.93;43.40;95037.91;5055638;28;20495;-79
2022/07/16 05:35:52;;;;;;;8.40;4.70;;;;;;;29.08;43.28;95035.50;5055856;28;20449;-79
2022/07/16 05:38:19;;;;;;;5.27;4.77;;;;;;;29.33;43.23;95043.25;5055842;28;20455;-78
2022/07/16 05:40:46;;;;;;;6.13;5.17;;;;;;;29.30;43.04;95039.16;5055676;28;20442;-79
2022/07/16 05:43:14;;;;;;;5.60;4.87;;;;;;;29.36;42.09;95037.38;5055848;28;20511;-79
2022/07/16 05:45:41;;;;;;;5.73;5.03;;;;;;;29.46;42.08;95040.28;5055816;28;20449;-77
2022/07/16 05:48:08;;;;;;;5.30;4.83;;;;;;;29.64;41.81;95041.94;5055705;28;20445;-82
2022/07/16 05:50:35;;;;;;;4.57;4.13;;;;;;;29.82;41.73;95039.00;5055338;28;20433;-79
2022/07/16 05:53:02;;;;;;;9.93;4.80;;;;;;;30.00;41.72;95046.03;5053892;28;20437;-78
2022/07/16 05:55:29;;;;;;;10.83;4.77;;;;;;;30.17;41.39;95044.16;5055199;28;20904;-80
2022/07/16 05:57:55;;;;;;;10.97;4.43;;;;;;;30.35;40.16;95051.19;5055828;28;20523;-78
2022/07/16 06:00:23;;;;;;;8.80;4.67;;;;;;;30.46;41.38;95058.41;5055331;28;20499;-79
2022/07/16 06:02:50;;;;;;;5.97;4.73;;;;;;;30.55;40.84;95050.66;5055260;28;20441;-79
2022/07/16 06:05:17;;;;;;;6.30;4.37;;;;;;;30.65;40.99;95052.69;5055482;28;20570;-79
2022/07/16 06:07:44;;;;;;;5.20;4.77;;;;;;;30.67;40.28;95054.13;5054996;28;20456;-79
2022/07/16 06:10:11;;;;;;;5.67;4.83;;;;;;;30.88;40.03;95043.50;5055450;28;20504;-79
2022/07/16 06:12:38;;;;;;;10.50;5.90;;;;;;;30.88;39.82;95054.34;5054535;28;20932;-79
2022/07/16 06:15:06;;;;;;;19.40;5.23;;;;;;;31.03;39.66;95043.69;5054598;28;20507;-79
2022/07/16 06:17:34;;;;;;;14.60;5.40;;;;;;;31.07;39.44;95044.81;5054544;28;20437;-80
2022/07/16 06:20:01;;;;;;;7.17;5.00;;;;;;;31.03;39.53;95047.22;5054531;28;20480;-78
2022/07/16 06:22:28;;;;;;;9.50;4.63;;;;;;;30.72;39.70;95046.03;5053722;28;20445;-78
2022/07/16 06:24:54;;;;;;;4.83;4.43;;;;;;;30.54;39.77;95043.59;5054227;28;20493;-80
2022/07/16 06:27:21;;;;;;;5.80;4.27;;;;;;;30.17;39.84;95044.16;5054470;28;20448;-78
2022/07/16 06:29:48;;;;;;;7.50;4.37;;;;;;;30.10;40.77;95042.72;5054033;28;20450;-79
2022/07/16 06:32:15;;;;;;;7.30;5.47;;;;;;;30.07;41.09;95048.59;5035062;28;20446;-78
2022/07/16 06:34:43;;;;;;;6.47;4.90;;;;;;;30.37;40.53;95032.00;5051580;28;20442;-79
2022/07/16 06:37:10;;;;;;;6.57;4.97;;;;;;;30.49;40.26;95036.22;5053676;28;20450;-77
2022/07/16 06:39:38;;;;;;;7.73;4.53;;;;;;;30.85;40.44;95035.88;5053976;28;20454;-79
2022/07/16 06:42:05;;;;;;;5.47;5.00;;;;;;;31.21;40.96;95032.53;5054022;28;20470;-79
2022/07/16 06:44:32;;;;;;;6.00;4.30;;;;;;;31.53;39.34;95031.78;5053788;28;20504;-80
2022/07/16 06:46:59;;;;;;;5.70;4.20;;;;;;;31.89;39.74;95028.31;5053800;28;20499;-79
2022/07/16 06:49:26;;;;;;;5.80;4.53;;;;;;;32.15;38.58;95037.47;5053499;28;20444;-80
2022/07/16 06:51:54;;;;;;;6.47;4.77;;;;;;;31.72;38.57;95039.28;5053597;28;20855;-79
2022/07/16 06:54:20;;;;;;;4.77;4.40;;;;;;;31.73;39.21;95038.22;5053631;28;20457;-79
2022/07/16 06:56:47;;;;;;;7.73;4.90;;;;;;;31.78;39.95;95044.75;5053619;28;20469;-80
2022/07/16 06:59:14;;;;;;;4.73;4.33;;;;;;;31.78;38.75;95042.03;5053502;28;20495;-79
2022/07/16 07:01:41;;;;;;;11.83;5.80;;;;;;;31.58;38.86;95040.78;5053282;28;20434;-79
2022/07/16 07:04:07;;;;;;;5.60;4.80;;;;;;;31.62;38.41;95044.63;5053196;28;20493;-78
2022/07/16 07:06:34;;;;;;;7.40;4.67;;;;;;;31.85;39.89;95042.66;5053474;28;20499;-78
2022/07/16 07:09:03;;;;;;;5.73;5.10;;;;;;;31.46;39.63;95044.72;5053496;28;20951;-79
2022/07/16 07:11:29;;;;;;;6.37;4.70;;;;;;;31.67;39.85;95041.13;5052939;28;20936;-79
2022/07/16 07:13:56;;;;;;;8.63;5.03;;;;;;;31.62;39.71;95039.19;5050882;28;20508;-79
2022/07/16 07:16:23;;;;;;;8.13;4.43;;;;;;;31.68;40.29;95042.75;5053445;28;20445;-79
2022/07/16 07:18:50;;;;;;;7.27;6.33;;;;;;;31.70;41.45;95046.03;5053004;28;20449;-78
2022/07/16 07:21:17;;;;;;;4.87;4.30;;;;;;;31.53;39.53;95040.75;5053124;28;20998;-79
2022/07/16 07:23:43;;;;;;;6.83;4.23;;;;;;;31.77;40.36;95043.13;5052890;28;20446;-78
2022/07/16 07:26:12;;;;;;;7.47;5.03;;;;;;;32.01;39.13;95039.78;5052715;28;20453;-79
2022/07/16 07:28:38;;;;;;;10.47;4.83;;;;;;;32.30;37.46;95037.59;5052789;28;20446;-79
2022/07/16 07:31:05;;;;;;;5.10;4.70;;;;;;;32.37;39.27;95034.63;5052748;28;20446;-78
2022/07/16 07:33:32;;;;;;;9.60;5.40;;;;;;;32.37;37.82;95036.53;5052640;28;20944;-79
2022/07/16 07:35:59;;;;;;;5.27;4.77;;;;;;;32.29;38.04;95040.56;5052183;28;20875;-78
2022/07/16 07:38:26;;;;;;;6.33;4.20;;;;;;;32.45;38.65;95036.88;5052788;28;20449;-78
2022/07/16 07:40:52;;;;;;;12.27;5.40;;;;;;;32.72;39.13;95036.75;5052606;28;20438;-79
2022/07/16 07:43:20;;;;;;;6.87;5.00;;;;;;;32.94;37.39;95033.84;5052553;28;20928;-79
2022/07/16 07:45:47;;;;;;;8.20;5.70;;;;;;;33.14;36.84;95035.84;5052493;28;20493;-79
2022/07/16 07:48:14;;;;;;;5.80;5.00;;;;;;;33.00;36.89;95048.31;5052671;28;20438;-78
2022/07/16 07:50:41;;;;;;;12.80;5.40;;;;;;;32.90;36.77;95043.63;5052600;28;20449;-79
2022/07/16 07:53:08;;;;;;;7.67;4.80;;;;;;;32.75;37.70;95040.81;5052518;28;20433;-80
2022/07/16 07:55:35;;;;;;;5.70;4.53;;;;;;;32.49;37.40;95046.13;5052346;28;20484;-79
2022/07/16 07:58:02;;;;;;;11.33;5.73;;;;;;;32.48;40.00;95040.97;5052530;28;20782;-78
2022/07/16 08:00:30;;;;;;;7.80;5.00;;;;;;;32.60;38.78;95036.94;5052502;28;20940;-79
2022/07/16 08:02:57;;;;;;;5.63;4.60;;;;;;;32.64;38.37;95038.03;5033608;28;20524;-77
2022/07/16 08:05:24;;;;;;;7.77;5.50;;;;;;;32.65;38.77;95042.41;5052215;28;20603;-79
2022/07/16 08:07:51;;;;;;;9.43;5.30;;;;;;;32.92;39.01;95039.56;5052147;28;20445;-80
2022/07/16 08:10:19;;;;;;;6.17;4.53;;;;;;;32.88;37.07;95040.34;5052075;28;20438;-79
2022/07/16 08:12:46;;;;;;;4.77;4.37;;;;;;;32.73;37.49;95037.56;5051935;28;20477;-78
2022/07/16 08:15:14;;;;;;;7.73;5.00;;;;;;;32.51;38.31;95045.88;5051771;28;20464;-79
2022/07/16 08:17:42;;;;;;;7.00;5.23;;;;;;;32.44;38.15;95040.66;5052154;28;20450;-79
2022/07/16 08:20:11;;;;;;;8.73;4.90;;;;;;;32.54;38.74;95042.63;5052379;28;20448;-79
2022/07/16 08:22:38;;;;;;;5.97;5.47;;;;;;;32.72;38.35;95035.94;5052255;28;20491;-79
2022/07/16 08:27:50;;;;;;;6.73;4.80;;;;;;;32.69;38.20;95025.59;5052243;28;20444;-79
2022/07/16 08:30:17;;;;;;;12.93;5.53;;;;;;;32.88;38.57;95032.19;5051919;28;20994;-79
2022/07/16 08:32:45;;;;;;;6.77;5.63;;;;;;;32.81;37.79;95031.63;5051807;28;20453;-78
2022/07/16 08:35:12;;;;;;;9.87;5.10;;;;;;;32.93;38.26;95021.34;5051867;28;20449;-79
2022/07/16 08:37:41;;;;;;;9.40;5.43;;;;;;;33.04;38.13;95028.47;5051884;28;20968;-78
2022/07/16 08:40:11;;;;;;;5.93;5.43;;;;;;;33.04;37.05;95022.22;5051564;28;20454;-79
2022/07/16 08:42:41;;;;;;;7.13;5.33;;;;;;;32.91;37.40;95031.66;5051789;28;20457;-78
2022/07/16 08:45:10;;;;;;;10.60;4.80;;;;;;;32.73;37.97;95024.78;5051870;28;20543;-79
2022/07/16 08:47:38;;;;;;;11.73;5.17;;;;;;;32.76;36.92;95026.97;5055704;28;20452;-78
2022/07/16 08:50:09;;;;;;;6.00;5.50;;;;;;;32.88;38.60;95026.75;5055895;28;20452;-78
2022/07/16 08:52:39;;;;;;;10.67;5.40;;;;;;;33.01;37.92;95031.72;5055679;28;20877;-80
2022/07/16 08:55:07;;;;;;;4.83;4.53;;;;;;;33.11;36.85;95039.91;5056227;28;20506;-79
2022/07/16 08:57:35;;;;;;;7.07;4.63;;;;;;;33.18;36.90;95032.31;5055929;28;20445;-78
2022/07/16 09:00:06;;;;;;;4.60;4.20;;;;;;;33.10;36.06;95029.28;5055786;28;20451;-79
2022/07/16 09:02:34;;;;;;;5.83;5.30;;;;;;;32.93;35.52;95040.38;5055407;28;20489;-80
2022/07/16 09:05:01;;;;;;;6.40;4.90;;;;;;;32.88;36.06;95032.19;5053363;28;20489;-79
2022/07/16 09:07:29;;;;;;;5.20;4.73;;;;;;;32.88;34.78;95035.75;5036599;28;20453;-79
2022/07/16 09:09:56;;;;;;;4.40;4.10;;;;;;;32.95;36.66;95038.22;5055530;28;20454;-79
2022/07/16 09:12:35;;;;;;;10.70;4.97;;;;;;;32.96;35.61;95037.13;5036734;28;20476;-79
2022/07/16 09:15:24;;;;;;;5.37;4.97;;;;;;;32.85;34.92;95032.75;5055915;28;20969;-79
2022/07/16 09:18:07;;;;;;;6.03;5.43;;;;;;;32.91;36.41;95045.25;5056046;28;20485;-79
2022/07/16 09:20:35;;;;;;;6.87;4.70;;;;;;;33.00;35.81;95042.88;5056405;28;20465;-81
2022/07/16 09:23:03;;;;;;;8.30;4.90;;;;;;;33.05;35.02;95030.09;5056114;28;20967;-77
2022/07/16 09:25:30;;;;;;;5.47;4.50;;;;;;;33.13;34.68;95032.28;5055889;28;20802;-80
2022/07/16 09:27:58;;;;;;;5.40;4.90;;;;;;;33.02;34.10;95024.38;5056083;28;20449;-80
2022/07/16 09:30:26;;;;;;;5.33;4.83;;;;;;;32.95;35.38;95032.75;5056077;28;20995;-80
2022/07/16 09:32:54;;;;;;;4.47;4.17;;;;;;;32.93;36.16;95016.72;5056080;28;20449;-83
2022/07/16 09:35:22;;;;;;;8.60;4.00;;;;;;;32.88;35.72;95018.59;5056904;28;20445;-82
2022/07/16 09:37:52;;;;;;;6.30;4.83;;;;;;;32.79;36.06;95020.22;5056507;28;20465;-80
2022/07/16 09:40:33;;;;;;;5.43;5.03;;;;;;;32.85;35.46;95016.44;5054529;28;20524;-83
2022/07/16 09:43:00;;;;;;;7.20;4.53;;;;;;;32.95;36.85;95003.66;5055849;28;20503;-82
2022/07/16 09:45:27;;;;;;;11.43;5.30;;;;;;;32.91;35.88;94999.84;5056473;28;20984;-83
2022/07/16 09:47:54;;;;;;;8.13;4.60;;;;;;;32.97;36.74;94998.00;5059015;28;20947;-82
2022/07/16 09:50:21;;;;;;;5.20;4.60;;;;;;;32.96;36.35;95001.78;5055907;28;20445;-81
2022/07/16 09:52:48;;;;;;;5.30;4.50;;;;;;;32.96;35.67;95001.78;5056150;28;20445;-82
2022/07/16 09:55:15;;;;;;;5.57;4.97;;;;;;;32.99;34.88;95001.25;5056225;28;20472;-83
2022/07/16 09:57:44;;;;;;;5.47;5.07;;;;;;;32.87;34.50;95006.91;5055534;28;20972;-80
2022/07/16 10:00:11;;;;;;;6.73;4.90;;;;;;;32.68;35.23;95004.94;5057509;28;20449;-81
2022/07/16 10:02:38;;;;;;;5.30;4.77;;;;;;;32.42;35.43;95004.81;5073316;28;20467;-82
2022/07/16 10:05:06;;;;;;;5.67;5.00;;;;;;;32.42;35.13;95003.97;5075286;28;20496;-83
2022/07/16 10:07:33;;;;;;;5.67;5.07;;;;;;;32.42;35.80;94993.94;5057092;28;20445;-83
2022/07/16 10:10:00;;;;;;;5.57;5.03;;;;;;;32.43;36.05;94992.84;5075187;28;20954;-81
2022/07/16 10:12:29;;;;;;;5.20;4.80;;;;;;;32.20;36.12;94979.66;5061848;28;20485;-80
2022/07/16 10:14:57;;;;;;;6.20;5.63;;;;;;;32.05;36.42;94986.59;5055286;28;20866;-80
2022/07/16 10:17:33;;;;;;;5.23;4.83;;;;;;;31.89;35.19;94990.31;5055610;28;20492;-82
2022/07/16 10:20:02;;;;;;;5.60;5.03;;;;;;;31.85;36.82;94978.34;5055078;28;20503;-80
2022/07/16 10:22:31;;;;;;;5.40;4.90;;;;;;;31.53;36.75;94970.19;5055949;28;20446;-78
2022/07/16 10:24:59;;;;;;;6.20;5.20;;;;;;;31.60;37.82;94973.50;5055242;28;20461;-81
2022/07/16 10:27:28;;;;;;;6.43;5.87;;;;;;;31.66;36.00;94975.19;5055559;28;20450;-79
2022/07/16 10:30:18;;;;;;;7.53;5.10;;;;;;;31.79;36.76;94971.22;5054917;28;20453;-81
2022/07/16 10:33:16;;;;;;;5.20;4.53;;;;;;;31.96;36.74;94973.78;5055015;28;20447;-81
2022/07/16 10:35:49;;;;;;;5.90;4.80;;;;;;;31.89;34.70;94979.44;5055356;28;20485;-81
2022/07/16 10:38:20;;;;;;;5.40;4.90;;;;;;;31.88;35.62;94982.44;5054785;28;21226;-82
2022/07/16 10:41:04;;;;;;;7.63;5.17;;;;;;;31.81;35.46;94971.00;5055172;28;20450;-81
2022/07/16 10:43:31;;;;;;;5.47;4.97;;;;;;;31.81;35.22;94973.69;5055030;28;20526;-84
2022/07/16 10:46:00;;;;;;;4.83;4.50;;;;;;;31.88;36.03;94966.97;5055200;28;20486;-83
2022/07/16 10:48:29;;;;;;;7.03;4.43;;;;;;;31.97;34.66;94965.38;5054770;28;20454;-85
2022/07/16 10:51:16;;;;;;;5.10;4.60;;;;;;;32.12;34.76;94961.16;5055495;28;20442;-87
2022/07/16 10:54:16;;;;;;;5.63;4.73;;;;;;;32.21;36.38;94970.41;5062793;28;20449;-85
2022/07/16 10:56:47;;;;;;;7.93;5.47;;;;;;;32.22;34.26;94966.63;5071373;28;20469;-85
2022/07/16 10:59:16;;;;;;;5.33;4.20;;;;;;;32.31;34.74;94965.06;5069854;28;20946;-85
2022/07/16 11:01:46;;;;;;;4.73;4.43;;;;;;;32.42;35.45;94969.47;5054363;28;20442;-83
2022/07/16 11:04:14;;;;;;;4.90;4.60;;;;;;;32.32;34.13;94963.97;5055406;28;20553;-83
2022/07/16 11:06:41;;;;;;;5.30;4.90;;;;;;;32.32;34.46;94963.97;5055117;28;20543;-84
2022/07/16 11:09:10;;;;;;;4.90;4.40;;;;;;;32.36;35.25;94962.38;5055147;28;20453;-85
2022/07/16 11:11:40;;;;;;;5.67;5.27;;;;;;;32.41;34.89;94956.16;5054808;28;20445;-84
2022/07/16 11:14:07;;;;;;;6.10;4.90;;;;;;;32.45;34.24;94955.38;5054807;28;20478;-86
2022/07/16 11:16:35;;;;;;;7.60;6.03;;;;;;;32.51;36.46;94959.72;5054645;28;20453;-85
2022/07/16 11:19:04;;;;;;;4.70;4.40;;;;;;;32.53;36.16;94952.13;5054643;28;20453;-85
2022/07/16 11:21:32;;;;;;;5.50;5.10;;;;;;;32.54;34.54;94956.47;5036011;28;20521;-85
2022/07/16 11:24:01;;;;;;;9.70;4.80;;;;;;;32.54;35.52;94948.34;5054170;28;20453;-84
2022/07/16 11:26:28;;;;;;;4.80;4.27;;;;;;;32.59;34.10;94951.06;5054714;28;20485;-86
2022/07/16 11:28:58;;;;;;;5.37;5.00;;;;;;;32.57;35.28;94941.53;5054380;28;20464;-84
2022/07/16 11:31:27;;;;;;;5.80;4.87;;;;;;;32.45;35.40;94949.94;5054389;28;21065;-84
2022/07/16 11:33:57;;;;;;;4.80;4.40;;;;;;;32.42;33.79;94955.91;5054346;28;20507;-84
2022/07/16 11:36:29;;;;;;;5.33;4.83;;;;;;;32.41;34.66;94948.00;5054102;28;20912;-82
2022/07/16 11:39:02;;;;;;;7.03;4.60;;;;;;;32.35;35.67;94947.16;5054402;28;20854;-83
2022/07/16 11:41:29;;;;;;;5.20;4.13;;;;;;;32.37;36.15;94944.97;5053764;28;20785;-85
2022/07/16 11:43:56;;;;;;;7.03;4.47;;;;;;;32.37;35.37;94941.44;5053981;28;20481;-85
2022/07/16 11:46:25;;;;;;;10.10;4.30;;;;;;;32.31;34.92;94943.34;5054128;28;20473;-83